createdAt,value
2022-09-11T00:01:48.326Z,97539.66
2022-09-11T00:04:16.540Z,97538.34
2022-09-11T00:06:45.104Z,97540.21
2022-09-11T00:09:14.005Z,97538.20
2022-09-11T00:11:43.586Z,97538.98
2022-09-11T00:14:14.084Z,97541.09
2022-09-11T00:16:47.190Z,97544.76
2022-09-11T00:19:19.343Z,97539.77
2022-09-11T00:21:49.909Z,97531.45
2022-09-11T00:24:18.225Z,97528.67
2022-09-11T00:26:47.501Z,97529.34
2022-09-11T00:29:15.827Z,97531.23
2022-09-11T00:31:44.201Z,97532.95
2022-09-11T00:34:12.479Z,97536.79
2022-09-11T00:36:44.316Z,97534.31
2022-09-11T00:39:14.379Z,97537.84
2022-09-11T00:41:45.072Z,97539.06
2022-09-11T00:44:16.898Z,97540.80
2022-09-11T00:46:55.581Z,97538.27
2022-09-11T00:49:46.920Z,97535.81
2022-09-11T00:52:29.148Z,97532.08
2022-09-11T00:55:07.601Z,97531.41
2022-09-11T00:57:46.947Z,97528.50
2022-09-11T01:00:15.741Z,97529.42
2022-09-11T01:02:48.351Z,97528.75
2022-09-11T01:05:18.467Z,97531.38
2022-09-11T01:07:47.726Z,97535.40
2022-09-11T01:10:16.123Z,97531.55
2022-09-11T01:13:13.164Z,97529.65
2022-09-11T01:15:49.918Z,97528.95
2022-09-11T01:18:31.720Z,97527.42
2022-09-11T01:21:40.471Z,97519.77
2022-09-11T01:24:34.246Z,97520.18
2022-09-11T01:27:23.947Z,97519.39
2022-09-11T01:30:01.419Z,97520.98
2022-09-11T01:33:03.269Z,97515.48
2022-09-11T01:36:10.681Z,97514.39
2022-09-11T01:38:58.708Z,97511.23
2022-09-11T01:41:50.860Z,97510.54
2022-09-11T01:44:26.515Z,97506.98
2022-09-11T01:46:55.007Z,97507.23
2022-09-11T01:49:32.075Z,97499.36
2022-09-11T01:52:06.261Z,97503.79
2022-09-11T01:54:42.810Z,97505.23
2022-09-11T01:57:46.559Z,97502.45
2022-09-11T02:00:15.575Z,97504.04
2022-09-11T02:03:09.404Z,97503.32
2022-09-11T02:05:53.208Z,97499.34
2022-09-11T02:08:51.264Z,97498.09
2022-09-11T02:11:22.429Z,97495.27
2022-09-11T02:14:17.859Z,97491.88
2022-09-11T02:16:52.902Z,97490.07
2022-09-11T02:19:27.693Z,97485.77
2022-09-11T02:21:58.075Z,97486.91
2022-09-11T02:24:27.788Z,97486.03
2022-09-11T02:27:03.056Z,97488.53
2022-09-11T02:29:32.978Z,97484.42
2022-09-11T02:32:03.726Z,97486.42
2022-09-11T02:34:36.963Z,97486.89
2022-09-11T02:37:21.337Z,97498.11
2022-09-11T02:40:07.546Z,97492.04
2022-09-11T02:42:54.689Z,97497.67
2022-09-11T02:46:23.035Z,97493.06
2022-09-11T02:49:26.611Z,97487.61
2022-09-11T02:52:04.755Z,97482.88
2022-09-11T02:54:54.284Z,97480.86
2022-09-11T02:57:38.198Z,97477.44
2022-09-11T03:00:09.243Z,97473.83
2022-09-11T03:02:43.215Z,97473.58
2022-09-11T03:05:12.127Z,97476.29
2022-09-11T03:07:41.768Z,97476.31
2022-09-11T03:10:11.633Z,97471.64
2022-09-11T03:12:40.153Z,97470.58
2022-09-11T03:15:12.029Z,97468.72
2022-09-11T03:17:40.459Z,97462.30
2022-09-11T03:20:08.775Z,97465.04
2022-09-11T03:22:37.055Z,97468.23
2022-09-11T03:25:06.704Z,97471.24
2022-09-11T03:27:39.495Z,97471.63
2022-09-11T03:30:10.062Z,97468.02
2022-09-11T03:32:38.195Z,97467.19
2022-09-11T03:35:06.554Z,97465.26
2022-09-11T03:37:34.807Z,97466.13
2022-09-11T03:40:04.809Z,97464.64
2022-09-11T03:42:33.557Z,97462.88
2022-09-11T03:45:01.777Z,97462.95
2022-09-11T03:47:30.463Z,97462.00
2022-09-11T03:49:58.811Z,97471.38
2022-09-11T03:52:27.019Z,97475.30
2022-09-11T03:54:55.211Z,97481.73
2022-09-11T03:57:23.769Z,97483.86
2022-09-11T03:59:52.061Z,97488.20
2022-09-11T04:02:20.255Z,97488.24
2022-09-11T04:04:48.530Z,97487.38
2022-09-11T04:07:17.055Z,97489.43
2022-09-11T04:09:46.659Z,97486.25
2022-09-11T04:12:14.877Z,97485.48
2022-09-11T04:14:43.036Z,97484.88
2022-09-11T04:17:13.172Z,97486.71
2022-09-11T04:19:41.345Z,97489.96
2022-09-11T04:22:09.568Z,97488.42
2022-09-11T04:24:40.175Z,97487.48
2022-09-11T04:27:08.265Z,97486.21
2022-09-11T04:29:36.387Z,97485.05
2022-09-11T04:32:04.984Z,97485.38
2022-09-11T04:34:35.198Z,97485.38
2022-09-11T04:37:04.321Z,97485.91
2022-09-11T04:39:34.165Z,97482.66
2022-09-11T04:42:04.409Z,97488.45
2022-09-11T04:44:32.677Z,97492.45
2022-09-11T04:47:01.119Z,97492.73
2022-09-11T04:49:29.431Z,97492.94
2022-09-11T04:52:02.961Z,97493.11
2022-09-11T04:54:31.245Z,97496.95
2022-09-11T04:57:01.955Z,97497.08
2022-09-11T04:59:30.637Z,97503.41
2022-09-11T05:02:05.812Z,97500.54
2022-09-11T05:04:36.009Z,97495.77
2022-09-11T05:07:04.348Z,97495.18
2022-09-11T05:09:32.501Z,97496.34
2022-09-11T05:12:02.247Z,97494.17
2022-09-11T05:14:32.833Z,97495.80
2022-09-11T05:17:02.904Z,97492.56
2022-09-11T05:19:31.683Z,97492.08
2022-09-11T05:22:00.184Z,97492.45
2022-09-11T05:24:29.710Z,97492.17
2022-09-11T05:27:01.570Z,97490.33
2022-09-11T05:29:32.722Z,97488.73
2022-09-11T05:32:08.203Z,97485.56
2022-09-11T05:34:36.339Z,97487.45
2022-09-11T05:37:05.520Z,97487.95
2022-09-11T05:39:38.001Z,97488.39
2022-09-11T05:42:06.969Z,97488.73
2022-09-11T05:44:37.062Z,97486.83
2022-09-11T05:47:05.933Z,97484.16
2022-09-11T05:49:34.055Z,97483.53
2022-09-11T05:52:03.046Z,97480.65
2022-09-11T05:54:32.460Z,97476.67
2022-09-11T05:57:06.907Z,97482.92
2022-09-11T05:59:36.715Z,97479.98
2022-09-11T06:02:05.043Z,97480.02
2022-09-11T06:04:43.067Z,97476.38
2022-09-11T06:07:11.221Z,97472.54
2022-09-11T06:09:41.224Z,97474.35
2022-09-11T06:12:12.530Z,97474.55
2022-09-11T06:14:44.430Z,97477.64
2022-09-11T06:17:12.705Z,97476.46
2022-09-11T06:19:40.891Z,97473.45
2022-09-11T06:22:09.096Z,97470.54
2022-09-11T06:24:43.136Z,97467.10
2022-09-11T06:27:11.527Z,97468.16
2022-09-11T06:29:45.036Z,97467.98
2022-09-11T06:32:13.711Z,97469.70
2022-09-11T06:34:41.991Z,97469.66
2022-09-11T06:37:13.647Z,97467.33
2022-09-11T06:39:42.244Z,97464.39
2022-09-11T06:42:11.693Z,97462.44
2022-09-11T06:44:42.185Z,97456.64
2022-09-11T06:47:11.183Z,97452.00
2022-09-11T06:49:39.317Z,97451.39
2022-09-11T06:52:25.809Z,97452.54
2022-09-11T06:55:04.736Z,97450.17
2022-09-11T06:57:33.005Z,97448.55
2022-09-11T07:00:01.121Z,97448.73
2022-09-11T07:02:32.806Z,97446.49
2022-09-11T07:05:01.713Z,97443.77
2022-09-11T07:07:30.236Z,97438.02
2022-09-11T07:10:00.362Z,97440.84
2022-09-11T07:12:28.560Z,97435.09
2022-09-11T07:14:57.186Z,97440.19
2022-09-11T07:17:25.301Z,97438.73
2022-09-11T07:19:53.906Z,97440.66
2022-09-11T07:22:22.233Z,97438.44
2022-09-11T07:24:52.557Z,97436.15
2022-09-11T07:27:21.958Z,97436.94
2022-09-11T07:29:50.088Z,97439.23
2022-09-11T07:32:18.284Z,97446.86
2022-09-11T07:34:47.654Z,97449.67
2022-09-11T07:37:16.135Z,97447.70
2022-09-11T07:39:44.323Z,97442.70
2022-09-11T07:42:26.929Z,97449.86
2022-09-11T07:44:55.772Z,97451.33
2022-09-11T07:47:24.044Z,97451.04
2022-09-11T07:49:52.976Z,97445.08
2022-09-11T07:52:21.132Z,97437.58
2022-09-11T07:54:58.132Z,97433.38
2022-09-11T07:57:31.226Z,97438.07
2022-09-11T08:00:00.448Z,97440.63
2022-09-11T08:02:31.389Z,97438.52
2022-09-11T08:05:00.254Z,97438.96
2022-09-11T08:07:28.672Z,97439.75
2022-09-11T08:10:23.335Z,97440.52
2022-09-11T08:12:47.727Z,97443.00
2022-09-11T08:15:15.855Z,97440.91
2022-09-11T08:17:44.650Z,97439.65
2022-09-11T08:20:13.672Z,97438.55
2022-09-11T08:22:42.147Z,97434.98
2022-09-11T08:25:10.540Z,97435.43
2022-09-11T08:27:38.736Z,97437.80
2022-09-11T08:30:08.647Z,97438.60
2022-09-11T08:32:37.031Z,97442.17
2022-09-11T08:35:06.134Z,97445.88
2022-09-11T08:37:34.392Z,97451.94
2022-09-11T08:40:02.839Z,97451.88
2022-09-11T08:42:31.887Z,97454.15
2022-09-11T08:45:03.200Z,97449.36
2022-09-11T08:47:39.794Z,97447.16
2022-09-11T08:50:24.475Z,97443.23
2022-09-11T08:52:54.853Z,97442.21
2022-09-11T08:55:41.195Z,97445.20
2022-09-11T08:58:19.410Z,97453.23
2022-09-11T09:01:03.029Z,97454.86
2022-09-11T09:04:06.369Z,97454.45
2022-09-11T09:06:40.619Z,97449.41
2022-09-11T09:09:40.799Z,97451.11
2022-09-11T09:12:27.494Z,97449.48
2022-09-11T09:15:01.796Z,97449.17
2022-09-11T09:17:42.289Z,97447.05
2022-09-11T09:20:23.203Z,97447.20
2022-09-11T09:23:21.772Z,97438.97
2022-09-11T09:25:54.335Z,97446.27
2022-09-11T09:28:39.703Z,97444.81
2022-09-11T09:31:11.309Z,97440.52
2022-09-11T09:34:02.033Z,97440.94
2022-09-11T09:36:56.347Z,97440.11
2022-09-11T09:39:25.762Z,97439.64
2022-09-11T09:42:05.289Z,97438.31
2022-09-11T09:44:51.276Z,97439.72
2022-09-11T09:47:19.467Z,97434.36
2022-09-11T09:49:48.159Z,97430.50
2022-09-11T09:52:26.564Z,97432.61
2022-09-11T09:55:06.171Z,97436.18
2022-09-11T09:57:40.075Z,97439.52
2022-09-11T10:00:11.826Z,97442.13
2022-09-11T10:02:58.126Z,97440.80
2022-09-11T10:05:42.742Z,97431.35
2022-09-11T10:08:31.423Z,97430.10
2022-09-11T10:11:09.185Z,97420.67
2022-09-11T10:13:42.569Z,97421.40
2022-09-11T10:16:25.776Z,97420.86
2022-09-11T10:18:56.351Z,97416.19
2022-09-11T10:21:33.487Z,97411.49
2022-09-11T10:24:17.392Z,97404.77
2022-09-11T10:26:50.837Z,97405.27
2022-09-11T10:29:30.262Z,97399.08
2022-09-11T10:32:04.428Z,97395.58
2022-09-11T10:34:39.194Z,97397.03
2022-09-11T10:37:23.799Z,97395.14
2022-09-11T10:39:54.196Z,97393.90
2022-09-11T10:42:30.484Z,97398.11
2022-09-11T10:45:12.403Z,97395.78
2022-09-11T10:47:41.018Z,97390.88
2022-09-11T10:50:18.004Z,97394.78
2022-09-11T10:52:58.112Z,97391.66
2022-09-11T10:55:36.446Z,97391.66
2022-09-11T10:58:19.436Z,97388.39
2022-09-11T11:00:49.445Z,97390.63
2022-09-11T11:03:26.248Z,97392.98
2022-09-11T11:06:32.680Z,97394.49
2022-09-11T11:09:31.681Z,97397.29
2022-09-11T11:12:33.094Z,97398.32
2022-09-11T11:15:19.855Z,97400.90
2022-09-11T11:18:18.478Z,97397.73
2022-09-11T11:21:53.808Z,97402.15
2022-09-11T11:24:40.830Z,97396.62
2022-09-11T11:27:27.715Z,97396.16
2022-09-11T11:30:28.185Z,97395.33
2022-09-11T11:33:24.222Z,97396.91
2022-09-11T11:36:28.932Z,97399.66
2022-09-11T11:39:07.154Z,97400.98
2022-09-11T11:41:45.435Z,97399.96
2022-09-11T11:44:41.693Z,97398.98
2022-09-11T11:47:11.773Z,97397.83
2022-09-11T11:50:07.001Z,97383.46
2022-09-11T11:52:57.261Z,97381.79
2022-09-11T11:55:32.741Z,97377.13
2022-09-11T11:58:26.486Z,97378.08
2022-09-11T12:01:01.937Z,97381.55
2022-09-11T12:04:10.265Z,97386.13
2022-09-11T12:06:38.645Z,97385.80
2022-09-11T12:09:10.836Z,97380.92
2022-09-11T12:11:39.262Z,97380.34
2022-09-11T12:14:08.067Z,97379.98
2022-09-11T12:16:36.590Z,97387.27
2022-09-11T12:19:20.979Z,97376.05
2022-09-11T12:21:55.083Z,97375.05
2022-09-11T12:24:58.911Z,97368.56
2022-09-11T12:27:34.681Z,97364.85
2022-09-11T12:30:30.851Z,97363.02
2022-09-11T12:33:02.476Z,97364.70
2022-09-11T12:35:52.868Z,97361.67
2022-09-11T12:38:40.950Z,97363.34
2022-09-11T12:41:30.844Z,97360.67
2022-09-11T12:43:59.717Z,97358.48
2022-09-11T12:46:30.776Z,97359.35
2022-09-11T12:49:21.613Z,97357.45
2022-09-11T12:51:58.348Z,97353.96
2022-09-11T12:54:42.600Z,97351.34
2022-09-11T12:57:43.250Z,97347.35
2022-09-11T13:00:28.332Z,97349.35
2022-09-11T13:02:58.016Z,97351.96
2022-09-11T13:05:38.563Z,97348.80
2022-09-11T13:08:24.136Z,97347.22
2022-09-11T13:10:52.433Z,97338.18
2022-09-11T13:13:37.472Z,97341.06
2022-09-11T13:16:26.611Z,97340.03
2022-09-11T13:19:10.289Z,97336.70
2022-09-11T13:21:41.864Z,97331.23
2022-09-11T13:24:31.536Z,97336.58
2022-09-11T13:27:18.933Z,97335.99
2022-09-11T13:29:48.706Z,97336.52
2022-09-11T13:32:18.925Z,97335.03
2022-09-11T13:35:01.961Z,97334.20
2022-09-11T13:37:39.821Z,97341.02
2022-09-11T13:40:19.097Z,97346.23
2022-09-11T13:42:49.016Z,97342.65
2022-09-11T13:45:22.318Z,97343.73
2022-09-11T13:47:51.792Z,97342.83
2022-09-11T13:50:23.505Z,97343.45
2022-09-11T13:52:54.223Z,97342.16
2022-09-11T13:55:27.338Z,97338.08
2022-09-11T13:58:03.796Z,97337.13
2022-09-11T14:00:47.209Z,97335.88
2022-09-11T14:03:20.216Z,97328.39
2022-09-11T14:05:59.214Z,97335.30
2022-09-11T14:08:40.474Z,97331.21
2022-09-11T14:11:16.176Z,97330.59
2022-09-11T14:13:56.658Z,97331.96
2022-09-11T14:16:32.059Z,97332.20
2022-09-11T14:19:13.204Z,97330.69
2022-09-11T14:21:46.580Z,97329.62
2022-09-11T14:24:32.808Z,97326.59
2022-09-11T14:27:04.491Z,97325.25
2022-09-11T14:29:37.520Z,97329.40
2022-09-11T14:32:39.099Z,97328.07
2022-09-11T14:35:10.572Z,97327.79
2022-09-11T14:37:45.931Z,97323.69
2022-09-11T14:40:19.427Z,97322.87
2022-09-11T14:42:48.623Z,97323.30
2022-09-11T14:45:24.513Z,97319.34
2022-09-11T14:47:53.581Z,97314.68
2022-09-11T14:50:22.746Z,97315.38
2022-09-11T14:52:51.738Z,97307.73
2022-09-11T14:55:20.536Z,97306.11
2022-09-11T14:57:48.837Z,97305.34
2022-09-11T15:00:19.349Z,97309.10
2022-09-11T15:02:47.913Z,97307.67
2022-09-11T15:05:19.820Z,97308.80
2022-09-11T15:07:49.201Z,97309.93
2022-09-11T15:10:17.310Z,97307.81
2022-09-11T15:12:45.408Z,97308.66
2022-09-11T15:15:16.085Z,97308.77
2022-09-11T15:17:44.304Z,97309.69
2022-09-11T15:20:12.431Z,97310.06
2022-09-11T15:22:40.533Z,97308.63
2022-09-11T15:25:08.752Z,97311.39
2022-09-11T15:27:37.032Z,97306.61
2022-09-11T15:30:06.172Z,97311.69
2022-09-11T15:32:34.321Z,97316.80
2022-09-11T15:35:05.024Z,97316.50
2022-09-11T15:37:33.899Z,97326.40
2022-09-11T15:40:02.123Z,97326.61
2022-09-11T15:42:30.980Z,97327.48
2022-09-11T15:44:59.070Z,97333.82
2022-09-11T15:47:29.416Z,97336.70
2022-09-11T15:49:58.587Z,97337.52
2022-09-11T15:52:27.389Z,97340.95
2022-09-11T15:54:55.501Z,97340.02
2022-09-11T15:57:25.573Z,97340.91
2022-09-11T15:59:53.677Z,97337.27
2022-09-11T16:02:23.928Z,97339.71
2022-09-11T16:04:53.929Z,97339.65
2022-09-11T16:07:22.492Z,97343.89
2022-09-11T16:09:51.399Z,97344.31
2022-09-11T16:12:19.528Z,97341.64
2022-09-11T16:14:48.220Z,97340.53
2022-09-11T16:17:20.615Z,97340.20
2022-09-11T16:19:48.746Z,97346.02
2022-09-11T16:22:16.840Z,97349.34
2022-09-11T16:24:45.097Z,97350.73
2022-09-11T16:27:13.206Z,97348.67
2022-09-11T16:30:16.042Z,97350.54
2022-09-11T16:32:29.779Z,97349.39
2022-09-11T16:34:59.535Z,97348.49
2022-09-11T16:37:28.853Z,97346.02
2022-09-11T16:39:56.993Z,97347.85
2022-09-11T16:42:26.368Z,97343.99
2022-09-11T16:44:54.653Z,97345.89
2022-09-11T16:47:24.332Z,97345.62
2022-09-11T16:50:08.918Z,97345.55
2022-09-11T16:52:39.219Z,97345.21
2022-09-11T16:55:09.968Z,97348.21
2022-09-11T16:57:39.890Z,97349.36
2022-09-11T17:00:10.383Z,97350.95
2022-09-11T17:02:40.436Z,97351.48
2022-09-11T17:05:09.708Z,97351.14
2022-09-11T17:07:38.491Z,97351.92
2022-09-11T17:10:07.474Z,97353.78
2022-09-11T17:12:35.571Z,97354.95
2022-09-11T17:15:04.599Z,97350.63
2022-09-11T17:17:34.868Z,97351.94
2022-09-11T17:20:03.161Z,97351.16
2022-09-11T17:22:31.272Z,97356.16
2022-09-11T17:24:59.400Z,97357.27
2022-09-11T17:27:27.533Z,97361.05
2022-09-11T17:29:55.895Z,97366.02
2022-09-11T17:32:28.559Z,97374.14
2022-09-11T17:34:58.714Z,97374.42
2022-09-11T17:37:28.373Z,97379.24
2022-09-11T17:39:57.986Z,97383.19
2022-09-11T17:42:28.806Z,97384.83
2022-09-11T17:44:56.920Z,97389.34
2022-09-11T17:47:30.561Z,97392.52
2022-09-11T17:50:01.542Z,97400.35
2022-09-11T17:52:32.137Z,97408.83
2022-09-11T17:55:00.319Z,97407.46
2022-09-11T17:57:28.528Z,97407.95
2022-09-11T17:59:56.704Z,97409.30
2022-09-11T18:02:26.207Z,97408.67
2022-09-11T18:04:54.333Z,97411.36
2022-09-11T18:07:22.485Z,97413.73
2022-09-11T18:09:55.610Z,97413.39
2022-09-11T18:12:26.642Z,97411.30
2022-09-11T18:14:56.987Z,97413.98
2022-09-11T18:17:25.189Z,97414.06
2022-09-11T18:19:53.327Z,97414.98
2022-09-11T18:22:22.531Z,97412.02
2022-09-11T18:24:51.021Z,97414.17
2022-09-11T18:27:19.882Z,97415.71
2022-09-11T18:29:50.088Z,97416.09
2022-09-11T18:32:19.945Z,97414.89
2022-09-11T18:34:48.645Z,97414.78
2022-09-11T18:37:17.507Z,97412.73
2022-09-11T18:39:46.867Z,97411.71
2022-09-11T18:42:15.046Z,97418.24
2022-09-11T18:44:43.185Z,97413.40
2022-09-11T18:47:11.471Z,97416.77
2022-09-11T18:49:39.631Z,97414.35
2022-09-11T18:52:08.811Z,97410.58
2022-09-11T18:54:37.427Z,97409.91
2022-09-11T18:57:05.676Z,97410.30
2022-09-11T18:59:33.798Z,97422.14
2022-09-11T19:02:02.297Z,97428.01
2022-09-11T19:04:30.618Z,97434.20
2022-09-11T19:07:00.289Z,97432.86
2022-09-11T19:09:29.435Z,97434.41
2022-09-11T19:12:00.229Z,97428.70
2022-09-11T19:14:28.754Z,97427.36
2022-09-11T19:16:56.917Z,97428.38
2022-09-11T19:19:25.955Z,97421.93
2022-09-11T19:21:54.045Z,97417.60
2022-09-11T19:24:23.710Z,97418.05
2022-09-11T19:26:52.900Z,97423.15
2022-09-11T19:29:22.716Z,97423.95
2022-09-11T19:31:52.819Z,97420.06
2022-09-11T19:34:23.964Z,97418.64
2022-09-11T19:36:53.040Z,97420.65
2022-09-11T19:39:21.931Z,97416.88
2022-09-11T19:41:50.345Z,97416.02
2022-09-11T19:44:20.038Z,97416.53
2022-09-11T19:46:53.440Z,97413.30
2022-09-11T19:49:21.804Z,97414.39
2022-09-11T19:51:53.194Z,97418.50
2022-09-11T19:54:22.999Z,97416.34
2022-09-11T19:56:51.450Z,97417.27
2022-09-11T19:59:19.909Z,97414.73
2022-09-11T20:01:48.339Z,97414.64
2022-09-11T20:04:17.729Z,97425.51
2022-09-11T20:09:30.361Z,97437.96
2022-09-11T20:12:01.483Z,97442.34
2022-09-11T20:14:31.138Z,97441.02
2022-09-11T20:17:01.036Z,97436.40
2022-09-11T20:19:29.984Z,97437.05
2022-09-11T20:21:58.153Z,97434.23
2022-09-11T20:24:26.418Z,97432.79
2022-09-11T20:26:54.861Z,97435.70
2022-09-11T20:29:23.007Z,97437.17
2022-09-11T20:31:51.277Z,97438.14
2022-09-11T20:34:22.131Z,97436.25
2022-09-11T20:36:50.255Z,97431.63
2022-09-11T20:39:20.129Z,97427.02
2022-09-11T20:41:48.324Z,97433.58
2022-09-11T20:44:17.148Z,97433.38
2022-09-11T20:46:47.582Z,97432.36
2022-09-11T20:49:16.228Z,97429.51
2022-09-11T20:51:44.424Z,97427.13
2022-09-11T20:54:12.630Z,97435.71
2022-09-11T20:56:40.791Z,97435.59
2022-09-11T20:59:08.927Z,97430.96
2022-09-11T21:01:37.205Z,97427.91
2022-09-11T21:04:05.615Z,97428.83
2022-09-11T21:06:36.011Z,97432.13
2022-09-11T21:09:11.375Z,97434.18
2022-09-11T21:11:42.613Z,97433.27
2022-09-11T21:14:15.507Z,97435.13
2022-09-11T21:16:43.767Z,97437.10
2022-09-11T21:19:11.903Z,97433.75
2022-09-11T21:21:42.968Z,97431.00
2022-09-11T21:24:13.618Z,97428.83
2022-09-11T21:26:42.498Z,97425.80
2022-09-11T21:29:13.945Z,97428.02
2022-09-11T21:31:44.509Z,97430.67
2022-09-11T21:34:12.674Z,97431.27
2022-09-11T21:36:41.166Z,97430.61
2022-09-11T21:39:09.431Z,97435.52
2022-09-11T21:41:37.614Z,97430.81
2022-09-11T21:44:05.759Z,97434.24
2022-09-11T21:46:34.682Z,97430.46
2022-09-11T21:49:02.809Z,97429.66
2022-09-11T21:51:30.978Z,97430.08
2022-09-11T21:54:01.687Z,97432.30
2022-09-11T21:56:33.641Z,97428.55
2022-09-11T21:59:02.479Z,97431.05
2022-09-11T22:01:32.064Z,97436.98
2022-09-11T22:04:01.370Z,97434.92
2022-09-11T22:06:30.332Z,97436.58
2022-09-11T22:08:59.731Z,97430.59
2022-09-11T22:11:28.008Z,97425.27
2022-09-11T22:13:56.128Z,97423.73
2022-09-11T22:16:24.343Z,97424.30
2022-09-11T22:18:54.513Z,97421.92
2022-09-11T22:21:24.432Z,97418.65
2022-09-11T22:23:52.725Z,97417.19
2022-09-11T22:26:24.026Z,97416.89
2022-09-11T22:28:52.992Z,97411.84
2022-09-11T22:31:25.042Z,97413.10
2022-09-11T22:33:55.171Z,97413.67
2022-09-11T22:36:27.286Z,97415.11
2022-09-11T22:38:56.775Z,97408.73
2022-09-11T22:41:26.847Z,97412.41
2022-09-11T22:43:54.988Z,97409.90
2022-09-11T22:46:26.906Z,97411.39
2022-09-11T22:48:56.232Z,97416.25
2022-09-11T22:51:24.442Z,97413.30
2022-09-11T22:53:52.653Z,97414.05
2022-09-11T22:56:22.064Z,97412.81
2022-09-11T22:58:50.192Z,97412.34
2022-09-11T23:01:22.269Z,97412.33
2022-09-11T23:03:53.282Z,97414.91
2022-09-11T23:06:40.571Z,97412.16
2022-09-11T23:09:13.552Z,97409.63
2022-09-11T23:11:41.512Z,97406.87
2022-09-11T23:14:14.240Z,97406.31
2022-09-11T23:16:44.012Z,97406.52
2022-09-11T23:19:14.982Z,97413.14
2022-09-11T23:21:43.507Z,97411.23
2022-09-11T23:24:14.515Z,97411.00
2022-09-11T23:26:44.069Z,97412.74
2022-09-11T23:29:12.699Z,97409.52
2022-09-11T23:31:41.652Z,97407.98
2022-09-11T23:34:16.364Z,97408.09
2022-09-11T23:36:45.393Z,97406.61
2022-09-11T23:39:14.413Z,97405.21
2022-09-11T23:41:42.561Z,97404.88
2022-09-11T23:44:10.748Z,97403.67
2022-09-11T23:46:38.848Z,97404.27
2022-09-11T23:49:07.427Z,97405.79
2022-09-11T23:51:35.624Z,97406.27
2022-09-11T23:54:04.485Z,97404.74
2022-09-11T23:56:32.698Z,97403.30
2022-09-11T23:59:00.840Z,97402.94
